Time;durP1;ratioP1;P1;durP2;ratioP2;P2;SDS_P1;SDS_P2;PMS_P1;PMS_P2;Temp;Humidity;BMP_temperature;BMP_pressure;BME280_temperature;BME280_humidity;BME280_pressure;Samples;Min_cycle;Max_cycle;Signal;HPM_P1;HPM_P2
2023/02/18 00:01:48;;;;;;;8.35;0.70;;;;;;;7.06;100.00;101628.81;6253447;28;20051;-73
2023/02/18 00:04:49;;;;;;;4.97;0.70;;;;;;;7.04;100.00;101625.34;6253717;28;20041;-73
2023/02/18 00:07:51;;;;;;;6.25;1.00;;;;;;;7.02;100.00;101625.41;6252822;28;20053;-73
2023/02/18 00:10:52;;;;;;;6.85;0.85;;;;;;;7.11;100.00;101626.94;6252367;28;20049;-73
2023/02/18 00:13:57;;;;;;;5.57;0.73;;;;;;;7.12;100.00;101620.81;6250826;28;20119;-74
2023/02/18 00:16:58;;;;;;;9.63;0.98;;;;;;;7.12;100.00;101628.66;6252988;28;20052;-74
2023/02/18 00:19:59;;;;;;;3.70;0.70;;;;;;;7.12;100.00;101641.72;6252877;28;20385;-74
2023/02/18 00:23:01;;;;;;;5.03;0.80;;;;;;;7.14;100.00;101644.31;6252823;28;20050;-73
2023/02/18 00:26:05;;;;;;;1.10;0.50;;;;;;;7.18;100.00;101644.19;6252678;28;20379;-73
2023/02/18 00:29:07;;;;;;;5.97;1.27;;;;;;;7.20;100.00;101634.53;6252840;28;20050;-73
2023/02/18 00:32:09;;;;;;;2.03;0.43;;;;;;;7.19;100.00;101635.44;6251523;28;20053;-74
2023/02/18 00:35:10;;;;;;;5.53;0.70;;;;;;;7.13;100.00;101640.84;6252268;28;20355;-73
2023/02/18 00:38:12;;;;;;;5.85;1.02;;;;;;;7.20;100.00;101633.69;6252843;28;20056;-74
2023/02/18 00:41:15;;;;;;;6.32;0.95;;;;;;;7.21;100.00;101630.19;6252293;28;20364;-73
2023/02/18 00:44:17;;;;;;;8.45;0.65;;;;;;;7.18;100.00;101632.88;6255649;28;20056;-73
2023/02/18 00:47:19;;;;;;;1.55;1.20;;;;;;;7.16;100.00;101639.88;6236853;28;20346;-73
2023/02/18 00:50:20;;;;;;;8.40;1.35;;;;;;;7.23;100.00;101638.84;6228045;28;20052;-74
2023/02/18 00:53:22;;;;;;;4.60;0.80;;;;;;;7.26;100.00;101639.59;6227244;28;20461;-74
2023/02/18 00:56:23;;;;;;;7.97;1.02;;;;;;;7.20;100.00;101646.75;6231639;28;20357;-73
2023/02/18 00:59:26;;;;;;;1.75;0.68;;;;;;;7.20;100.00;101641.53;6252053;28;20049;-73
2023/02/18 01:02:27;;;;;;;1.48;0.60;;;;;;;7.21;100.00;101646.72;6251408;28;20346;-73
2023/02/18 01:05:29;;;;;;;6.43;0.82;;;;;;;7.29;100.00;101644.78;6260041;28;20050;-74
2023/02/18 01:08:30;;;;;;;1.48;0.50;;;;;;;7.31;100.00;101643.00;6251538;28;20048;-73
2023/02/18 01:11:32;;;;;;;6.93;0.68;;;;;;;7.25;100.00;101640.50;6251793;28;20437;-73
2023/02/18 01:14:34;;;;;;;6.80;1.15;;;;;;;7.34;100.00;101639.44;6251517;28;20048;-73
2023/02/18 01:17:35;;;;;;;5.50;0.50;;;;;;;7.39;100.00;101650.63;6251585;28;20049;-74
2023/02/18 01:20:38;;;;;;;2.65;0.55;;;;;;;7.29;100.00;101644.78;6242765;28;20045;-74
2023/02/18 01:23:41;;;;;;;2.30;0.57;;;;;;;7.29;100.00;101643.91;6251362;28;20045;-74
2023/02/18 01:26:42;;;;;;;3.80;1.05;;;;;;;7.22;100.00;101626.66;6251257;28;20045;-73
2023/02/18 01:29:45;;;;;;;5.72;0.73;;;;;;;7.24;100.00;101633.56;6251176;28;20498;-73
2023/02/18 01:32:46;;;;;;;8.73;0.88;;;;;;;7.23;100.00;101629.25;6246212;28;20050;-74
2023/02/18 01:35:48;;;;;;;4.90;0.57;;;;;;;7.19;100.00;101638.06;6250472;28;20048;-73
2023/02/18 01:38:49;;;;;;;4.40;1.05;;;;;;;7.22;100.00;101624.03;6251346;28;20049;-74
2023/02/18 01:41:50;;;;;;;6.00;0.70;;;;;;;7.22;100.00;101624.03;6251038;28;20049;-74
2023/02/18 01:44:54;;;;;;;2.13;1.20;;;;;;;7.28;100.00;101616.91;6250710;28;20041;-73
2023/02/18 01:47:55;;;;;;;5.25;1.40;;;;;;;7.29;100.00;101616.00;6243076;28;20057;-74
2023/02/18 01:51:02;;;;;;;8.43;0.85;;;;;;;7.32;100.00;101604.63;6250473;28;20353;-74
2023/02/18 01:54:08;;;;;;;0.90;0.60;;;;;;;7.34;100.00;101602.81;6243872;28;20056;-73
2023/02/18 01:57:12;;;;;;;6.68;0.82;;;;;;;7.33;100.00;101619.41;6250522;28;20053;-73
2023/02/18 02:00:20;;;;;;;2.53;0.85;;;;;;;7.32;100.00;101591.56;6256237;28;20058;-73
2023/02/18 02:03:21;;;;;;;6.05;0.43;;;;;;;7.29;100.00;101591.63;6231829;28;20057;-74
2023/02/18 02:06:24;;;;;;;6.07;1.05;;;;;;;7.33;100.00;101591.50;6250205;28;20045;-73
2023/02/18 02:09:29;;;;;;;9.98;0.77;;;;;;;7.35;100.00;101594.94;6246015;28;20061;-73
2023/02/18 02:12:43;;;;;;;2.65;0.63;;;;;;;7.40;100.00;101600.03;6226056;28;20488;-73
2023/02/18 02:15:51;;;;;;;9.02;0.40;;;;;;;7.37;100.00;101589.69;6225376;28;20042;-73
2023/02/18 02:19:04;;;;;;;3.97;0.40;;;;;;;7.38;100.00;101586.16;6226057;28;20053;-74
2023/02/18 02:22:33;;;;;;;3.65;0.73;;;;;;;7.37;100.00;101582.69;6244100;28;20377;-73
2023/02/18 02:25:53;;;;;;;7.15;1.30;;;;;;;7.35;100.00;101574.00;6249810;28;20046;-73
2023/02/18 02:29:17;;;;;;;2.72;0.55;;;;;;;7.31;100.00;101569.78;6250436;28;20061;-73
2023/02/18 02:33:00;;;;;;;4.82;1.15;;;;;;;7.36;100.00;101570.53;6247251;28;20045;-73
2023/02/18 02:36:09;;;;;;;7.40;0.93;;;;;;;7.32;100.00;101568.88;6243893;28;20052;-73
2023/02/18 02:39:19;;;;;;;1.50;0.73;;;;;;;7.36;100.00;101562.69;6261502;28;20060;-73
2023/02/18 02:42:30;;;;;;;6.15;0.77;;;;;;;7.28;100.00;101555.94;6230912;28;20378;-73
2023/02/18 02:45:48;;;;;;;7.45;0.70;;;;;;;7.24;100.00;101555.16;6230183;28;20457;-73
2023/02/18 02:48:58;;;;;;;10.95;0.75;;;;;;;7.20;100.00;101560.50;6231016;28;20050;-73
2023/02/18 02:52:05;;;;;;;3.03;0.85;;;;;;;7.20;100.00;101550.03;6247884;28;20136;-73
2023/02/18 02:55:09;;;;;;;3.53;1.15;;;;;;;7.22;100.00;101549.13;6254653;28;20110;-73
2023/02/18 02:58:15;;;;;;;5.38;0.52;;;;;;;7.22;100.00;101561.31;6254915;28;20045;-74
2023/02/18 03:01:29;;;;;;;9.25;0.95;;;;;;;7.27;100.00;101555.06;6254897;28;20191;-73
2023/02/18 03:04:54;;;;;;;8.70;1.08;;;;;;;7.22;100.00;101543.88;6260842;28;20052;-73
2023/02/18 03:08:24;;;;;;;3.35;0.70;;;;;;;7.16;100.00;101525.72;6246713;28;20132;-73
2023/02/18 03:11:29;;;;;;;4.53;0.82;;;;;;;7.11;100.00;101523.25;6254597;28;20052;-73
2023/02/18 03:14:41;;;;;;;3.70;0.60;;;;;;;7.11;100.00;101523.25;6254735;28;20049;-73
2023/02/18 03:17:48;;;;;;;4.68;1.33;;;;;;;7.09;100.00;101522.44;6254090;28;20057;-73
2023/02/18 03:20:54;;;;;;;1.85;0.82;;;;;;;7.09;100.00;101505.91;6254712;28;20049;-73
2023/02/18 03:24:02;;;;;;;4.00;0.55;;;;;;;7.09;100.00;101504.16;6246401;28;20057;-73
2023/02/18 03:27:09;;;;;;;4.07;0.95;;;;;;;7.07;100.00;101500.69;6254269;28;20057;-73
2023/02/18 03:30:15;;;;;;;4.07;1.33;;;;;;;7.06;100.00;101500.75;6253945;28;20437;-73
2023/02/18 03:33:23;;;;;;;3.75;0.63;;;;;;;7.11;100.00;101499.72;6262223;28;20045;-73
2023/02/18 03:36:25;;;;;;;5.53;1.25;;;;;;;7.07;100.00;101495.47;6249117;28;20445;-73
2023/02/18 03:39:30;;;;;;;3.28;0.90;;;;;;;7.12;100.00;101497.97;6250072;28;20361;-74
2023/02/18 03:42:32;;;;;;;3.38;1.10;;;;;;;7.16;100.00;101496.13;6254121;28;20052;-73
2023/02/18 03:45:33;;;;;;;5.30;1.02;;;;;;;7.17;100.00;101500.44;6253952;28;20042;-73
2023/02/18 03:48:35;;;;;;;4.50;0.77;;;;;;;7.10;100.00;101500.63;6253309;28;20045;-73
2023/02/18 03:51:37;;;;;;;10.25;1.15;;;;;;;7.11;100.00;101504.09;6253428;28;20361;-73
2023/02/18 03:54:40;;;;;;;9.38;1.60;;;;;;;7.03;100.00;101496.44;6250837;28;20057;-73
2023/02/18 03:57:41;;;;;;;5.57;1.60;;;;;;;7.04;100.00;101497.31;6245256;28;20052;-73
2023/02/18 04:00:42;;;;;;;7.72;2.60;;;;;;;7.03;100.00;101493.84;6253340;28;20061;-73
2023/02/18 04:03:44;;;;;;;7.18;1.60;;;;;;;7.01;100.00;101493.03;6253431;28;20357;-73
2023/02/18 04:06:45;;;;;;;3.45;1.58;;;;;;;7.02;100.00;101489.50;6251607;28;20045;-73
2023/02/18 04:09:48;;;;;;;6.22;2.17;;;;;;;7.06;100.00;101492.91;6243652;28;20054;-73
2023/02/18 04:12:49;;;;;;;5.68;1.55;;;;;;;7.09;100.00;101496.31;6252716;28;20046;-74
2023/02/18 04:15:51;;;;;;;7.85;1.98;;;;;;;7.00;100.00;101486.09;6245093;28;20045;-73
2023/02/18 04:18:53;;;;;;;3.72;1.23;;;;;;;6.99;100.00;101479.13;6253067;28;20056;-73
2023/02/18 04:21:54;;;;;;;4.75;1.35;;;;;;;6.97;100.00;101469.63;6253105;28;20057;-73
2023/02/18 04:24:58;;;;;;;5.18;1.00;;;;;;;6.92;100.00;101455.84;6252831;28;20437;-73
2023/02/18 04:27:59;;;;;;;13.30;1.48;;;;;;;6.88;100.00;101444.59;6252682;28;20049;-74
2023/02/18 04:31:00;;;;;;;5.00;1.33;;;;;;;6.82;100.00;101450.88;6251681;28;20053;-74
2023/02/18 04:34:02;;;;;;;1.77;1.05;;;;;;;6.73;100.00;101450.25;6229265;28;20052;-74
2023/02/18 04:37:03;;;;;;;13.60;1.42;;;;;;;6.72;100.00;101456.34;6253135;28;20559;-74
2023/02/18 04:40:07;;;;;;;5.65;1.63;;;;;;;6.71;100.00;101446.81;6241000;28;20046;-75
2023/02/18 04:43:09;;;;;;;9.13;1.80;;;;;;;6.69;100.00;101448.63;6230076;28;20045;-74
2023/02/18 04:46:10;;;;;;;7.20;1.60;;;;;;;6.64;100.00;101440.91;6252182;28;20053;-74
2023/02/18 04:49:11;;;;;;;9.05;1.63;;;;;;;6.64;100.00;101433.06;6252493;28;20567;-74
2023/02/18 04:52:13;;;;;;;4.80;1.67;;;;;;;6.64;100.00;101434.81;6251875;28;20053;-75
2023/02/18 04:55:16;;;;;;;4.57;1.90;;;;;;;6.60;100.00;101428.81;6239756;28;20038;-75
2023/02/18 04:58:17;;;;;;;8.88;1.95;;;;;;;6.65;100.00;101426.09;6233490;28;20522;-75
2023/02/18 05:01:19;;;;;;;10.27;1.65;;;;;;;6.64;100.00;101422.63;6237227;28;20044;-75
2023/02/18 05:04:20;;;;;;;8.35;1.73;;;;;;;6.58;100.00;101413.16;6229585;28;20041;-75
2023/02/18 05:07:21;;;;;;;8.82;1.90;;;;;;;6.58;100.00;101414.91;6231161;28;20075;-75
2023/02/18 05:10:24;;;;;;;8.63;2.60;;;;;;;6.57;100.00;101408.84;6235827;28;20045;-76
2023/02/18 05:13:26;;;;;;;6.10;2.08;;;;;;;6.57;100.00;101397.53;6241138;28;20041;-75
2023/02/18 05:16:27;;;;;;;8.68;2.25;;;;;;;6.58;100.00;101396.63;6217168;28;20417;-75
2023/02/18 05:19:28;;;;;;;10.82;2.97;;;;;;;6.60;100.00;101395.72;6213181;28;20058;-75
2023/02/18 05:22:30;;;;;;;4.95;1.77;;;;;;;6.64;100.00;101390.41;6232504;28;20049;-75
2023/02/18 05:25:32;;;;;;;4.63;1.70;;;;;;;6.65;100.00;101377.31;6227886;28;20050;-75
2023/02/18 05:28:34;;;;;;;12.63;2.53;;;;;;;6.61;100.00;101375.69;6235467;28;20042;-75
2023/02/18 05:31:37;;;;;;;7.78;2.20;;;;;;;6.66;100.00;101375.56;6207506;28;20057;-75
2023/02/18 05:34:38;;;;;;;16.77;2.58;;;;;;;6.64;100.00;101369.53;6214314;28;20073;-75
2023/02/18 05:37:40;;;;;;;5.95;2.33;;;;;;;6.60;100.00;101358.31;6233265;28;20046;-75
2023/02/18 05:40:42;;;;;;;4.35;2.28;;;;;;;6.55;100.00;101347.97;6235363;28;20045;-75
2023/02/18 05:47:00;;;;;;;5.00;2.10;;;;;;;6.58;100.00;101313.06;6201423;28;20132;-75
2023/02/18 05:50:02;;;;;;;3.92;2.15;;;;;;;6.61;100.00;101310.38;6232665;28;20042;-75
2023/02/18 05:53:03;;;;;;;2.53;1.77;;;;;;;6.63;100.00;101294.66;6231528;28;20058;-75
2023/02/18 05:56:07;;;;;;;5.05;2.50;;;;;;;6.64;100.00;101299.03;6240841;28;20485;-75
2023/02/18 05:59:08;;;;;;;5.63;2.50;;;;;;;6.62;100.00;101280.75;6250758;28;20050;-75
2023/02/18 06:02:10;;;;;;;3.95;2.58;;;;;;;6.63;100.00;101281.63;6244533;28;20464;-75
2023/02/18 06:05:11;;;;;;;8.18;3.08;;;;;;;6.61;100.00;101279.06;6248197;28;20066;-75
2023/02/18 06:08:13;;;;;;;7.97;3.28;;;;;;;6.58;100.00;101256.47;6234607;28;20435;-75
2023/02/18 06:11:15;;;;;;;12.50;4.20;;;;;;;6.62;100.00;101249.41;6235695;28;20060;-75
2023/02/18 06:14:17;;;;;;;9.70;3.92;;;;;;;6.66;100.00;101238.00;6238850;28;20049;-75
2023/02/18 06:17:18;;;;;;;8.30;2.90;;;;;;;6.69;100.00;101237.91;6239273;28;20067;-75
2023/02/18 06:20:20;;;;;;;8.88;3.42;;;;;;;6.70;100.00;101239.63;6238637;28;20054;-75
2023/02/18 06:23:21;;;;;;;5.40;3.10;;;;;;;6.73;100.00;101239.53;6236087;28;20046;-75
2023/02/18 06:26:24;;;;;;;10.32;3.55;;;;;;;6.75;100.00;101222.03;6235721;28;20053;-75
2023/02/18 06:29:26;;;;;;;11.27;3.13;;;;;;;6.80;100.00;101216.69;6238590;28;20045;-75
2023/02/18 06:32:28;;;;;;;9.93;3.85;;;;;;;6.77;100.00;101217.66;6235959;28;20053;-75
2023/02/18 06:35:29;;;;;;;13.52;4.03;;;;;;;6.81;100.00;101216.66;6235685;28;20055;-75
2023/02/18 06:38:30;;;;;;;8.63;3.60;;;;;;;6.82;100.00;101207.91;6235538;28;20054;-75
2023/02/18 06:41:34;;;;;;;6.53;3.60;;;;;;;6.83;100.00;101199.16;6235517;28;20053;-75
2023/02/18 06:44:35;;;;;;;7.53;3.80;;;;;;;6.84;100.00;101193.03;6235524;28;20038;-75
2023/02/18 06:47:36;;;;;;;9.55;4.13;;;;;;;6.88;100.00;101188.56;6238604;28;20064;-75
2023/02/18 06:50:38;;;;;;;11.05;4.78;;;;;;;6.94;100.00;101190.13;6251868;28;20054;-75
2023/02/18 06:53:39;;;;;;;13.00;5.47;;;;;;;6.96;100.00;101170.06;6225334;28;20049;-75
2023/02/18 06:56:42;;;;;;;12.38;5.55;;;;;;;6.97;100.00;101161.31;6225136;28;20042;-76
2023/02/18 06:59:43;;;;;;;12.30;5.45;;;;;;;6.98;100.00;101157.78;6248573;28;20434;-75
2023/02/18 07:02:45;;;;;;;13.63;6.22;;;;;;;6.98;100.00;101147.34;6249961;28;20054;-76
2023/02/18 07:05:46;;;;;;;15.18;5.10;;;;;;;7.01;100.00;101139.41;6255480;28;20061;-79
2023/02/18 07:08:47;;;;;;;14.18;7.03;;;;;;;7.05;100.00;101120.97;6226868;28;20062;-79
2023/02/18 07:11:50;;;;;;;14.23;7.30;;;;;;;7.06;100.00;101125.28;6249781;28;20073;-78
2023/02/18 07:14:51;;;;;;;18.25;7.75;;;;;;;7.09;100.00;101116.50;6230558;28;20061;-79
2023/02/18 07:17:53;;;;;;;19.15;8.27;;;;;;;7.12;100.00;101113.75;6253781;28;20041;-79
2023/02/18 07:20:55;;;;;;;16.75;7.60;;;;;;;7.19;100.00;101117.06;6244385;28;20060;-79
2023/02/18 07:23:56;;;;;;;14.43;6.88;;;;;;;7.22;100.00;101117.81;6254249;28;20052;-79
2023/02/18 07:26:59;;;;;;;23.02;9.00;;;;;;;7.26;100.00;101097.63;6253791;28;20049;-79
2023/02/18 07:30:00;;;;;;;24.52;8.50;;;;;;;7.28;100.00;101082.75;6250894;28;20049;-79
2023/02/18 07:33:01;;;;;;;18.30;8.43;;;;;;;7.32;100.00;101085.22;6247660;28;20396;-79
2023/02/18 07:36:03;;;;;;;29.38;10.02;;;;;;;7.36;100.00;101073.75;6252470;28;20377;-79
2023/02/18 07:39:05;;;;;;;16.65;8.10;;;;;;;7.46;100.00;101060.34;6260348;28;20447;-80
2023/02/18 07:42:07;;;;;;;23.52;8.70;;;;;;;7.55;100.00;101058.25;6243562;28;20056;-79
2023/02/18 07:45:10;;;;;;;20.13;8.48;;;;;;;7.63;100.00;101064.06;6246937;28;20053;-80
2023/02/18 07:48:11;;;;;;;21.38;7.63;;;;;;;7.85;100.00;101060.66;6252620;28;20042;-80
2023/02/18 07:51:13;;;;;;;18.33;7.55;;;;;;;7.95;100.00;101056.81;6245261;28;20050;-80
2023/02/18 07:54:14;;;;;;;19.40;8.10;;;;;;;8.00;100.00;101057.47;6254059;28;20045;-80
2023/02/18 07:57:17;;;;;;;17.73;6.45;;;;;;;8.12;100.00;101057.00;6253190;28;20357;-80
2023/02/18 08:00:18;;;;;;;20.45;7.07;;;;;;;8.24;100.00;101057.44;6253552;28;20417;-79
2023/02/18 08:03:21;;;;;;;12.93;5.90;;;;;;;8.25;100.00;101057.38;6265327;28;20049;-80
2023/02/18 08:06:27;;;;;;;16.13;5.65;;;;;;;8.35;100.00;101050.88;6255038;28;20037;-80
2023/02/18 08:09:29;;;;;;;19.65;6.60;;;;;;;8.44;100.00;101054.06;6260076;28;20042;-79
2023/02/18 08:12:31;;;;;;;13.68;5.82;;;;;;;8.47;100.00;101035.63;6258308;28;20049;-80
2023/02/18 08:15:32;;;;;;;15.65;5.22;;;;;;;8.48;100.00;101032.94;6255962;28;20042;-79
2023/02/18 08:18:34;;;;;;;10.88;4.80;;;;;;;8.53;100.00;101030.13;6253071;28;20042;-80
2023/02/18 08:21:35;;;;;;;10.63;4.57;;;;;;;8.54;100.00;101031.84;6248582;28;20045;-80
2023/02/18 08:24:36;;;;;;;8.40;3.25;;;;;;;8.69;100.00;101030.38;6263528;28;20052;-79
2023/02/18 08:27:39;;;;;;;3.67;2.08;;;;;;;8.83;100.00;101020.19;6246453;28;20050;-81
2023/02/18 08:30:44;;;;;;;6.85;2.25;;;;;;;8.88;100.00;101005.09;6259760;28;20049;-81
2023/02/18 08:33:47;;;;;;;6.45;2.75;;;;;;;9.02;100.00;100988.78;6258880;28;20052;-81
2023/02/18 08:36:48;;;;;;;5.90;2.53;;;;;;;9.05;100.00;100986.91;6251847;28;20438;-81
2023/02/18 08:39:50;;;;;;;5.85;2.83;;;;;;;9.10;100.00;100992.78;6252518;28;20124;-78
2023/02/18 08:42:52;;;;;;;4.30;2.08;;;;;;;9.22;100.00;100991.41;6252660;28;20060;-81
2023/02/18 08:45:54;;;;;;;4.10;2.00;;;;;;;9.27;100.00;100988.59;6252096;28;20056;-80
2023/02/18 08:48:55;;;;;;;5.45;2.17;;;;;;;9.31;100.00;100987.50;6252402;28;20049;-77
2023/02/18 08:51:56;;;;;;;3.17;2.13;;;;;;;9.38;100.00;100991.59;6251986;28;20331;-79
2023/02/18 08:54:57;;;;;;;5.60;1.80;;;;;;;9.42;100.00;100976.56;6252123;28;20060;-79
2023/02/18 08:58:01;;;;;;;4.70;2.10;;;;;;;9.45;100.00;100976.41;6251922;28;20053;-81
2023/02/18 09:01:03;;;;;;;3.63;2.00;;;;;;;9.45;100.00;100985.16;6252217;28;20053;-79
2023/02/18 09:04:05;;;;;;;2.85;1.85;;;;;;;9.49;100.00;100964.84;6252252;28;20045;-82
2023/02/18 09:07:06;;;;;;;2.67;1.55;;;;;;;9.50;100.00;100966.59;6257848;28;20041;-80
2023/02/18 09:10:09;;;;;;;2.50;1.75;;;;;;;9.52;100.00;100959.47;6237552;28;20049;-80
2023/02/18 09:13:11;;;;;;;3.00;1.90;;;;;;;9.57;100.00;100970.63;6259965;28;20052;-81
2023/02/18 09:16:17;;;;;;;1.75;1.10;;;;;;;9.58;100.00;100960.06;6262439;28;20045;-81
2023/02/18 09:19:18;;;;;;;2.67;1.33;;;;;;;9.62;100.00;100964.22;6264721;28;20053;-82
2023/02/18 09:22:20;;;;;;;3.13;1.50;;;;;;;9.62;100.00;100963.38;6259985;28;20046;-82
2023/02/18 09:25:21;;;;;;;2.30;1.25;;;;;;;9.62;100.00;100973.88;6259552;28;20552;-76
2023/02/18 09:28:25;;;;;;;2.72;1.20;;;;;;;9.64;100.00;100990.41;6264083;28;20045;-77
2023/02/18 09:31:27;;;;;;;2.53;1.42;;;;;;;9.64;100.00;100970.28;6234284;28;20054;-78
2023/02/18 09:34:29;;;;;;;1.42;0.80;;;;;;;9.70;100.00;100963.03;6256271;28;20053;-79
2023/02/18 09:37:30;;;;;;;1.08;0.88;;;;;;;9.74;100.00;100956.72;6263564;28;20441;-83
2023/02/18 09:40:35;;;;;;;1.33;0.88;;;;;;;9.75;100.00;100961.06;6263059;28;20057;-83
2023/02/18 09:43:42;;;;;;;1.08;0.88;;;;;;;9.76;100.00;100954.88;6245408;28;20046;-78
2023/02/18 09:46:50;;;;;;;2.00;0.90;;;;;;;9.79;100.00;100952.97;6248449;28;20055;-80
2023/02/18 09:49:54;;;;;;;1.85;0.98;;;;;;;9.73;100.00;100950.63;6243379;28;20107;-80
2023/02/18 09:52:58;;;;;;;1.83;0.98;;;;;;;9.79;100.00;100952.97;6242391;28;20358;-79
2023/02/18 09:56:01;;;;;;;0.85;0.60;;;;;;;9.81;100.00;100955.50;6240524;28;20053;-77
2023/02/18 09:59:07;;;;;;;1.50;0.95;;;;;;;9.80;100.00;100954.66;6242673;28;20045;-81
2023/02/18 10:02:15;;;;;;;1.35;1.13;;;;;;;9.77;100.00;100951.34;6259101;28;20088;-83
2023/02/18 10:05:17;;;;;;;3.38;1.42;;;;;;;9.81;100.00;100942.38;6262375;28;20048;-82
2023/02/18 10:08:22;;;;;;;1.95;1.17;;;;;;;9.79;100.00;100954.75;6247516;28;20041;-80
2023/02/18 10:11:30;;;;;;;2.30;1.70;;;;;;;9.84;100.00;100943.09;6254045;28;20045;-80
2023/02/18 10:14:34;;;;;;;4.15;2.17;;;;;;;9.86;100.00;100945.66;6251009;28;20045;-80
2023/02/18 10:17:37;;;;;;;4.07;2.15;;;;;;;9.85;100.00;100943.94;6256480;28;20041;-82
2023/02/18 10:20:39;;;;;;;4.18;2.53;;;;;;;9.80;100.00;100951.19;6243900;28;20366;-81
2023/02/18 10:23:43;;;;;;;4.57;2.10;;;;;;;9.76;100.00;100947.00;6254947;28;20380;-79
2023/02/18 10:26:45;;;;;;;6.00;2.75;;;;;;;9.87;100.00;100944.75;6234280;28;20401;-80
2023/02/18 10:29:48;;;;;;;6.03;3.05;;;;;;;9.79;100.00;100925.88;6250591;28;20453;-83
2023/02/18 10:32:54;;;;;;;5.78;2.47;;;;;;;9.75;100.00;100926.94;6251216;28;20361;-82
2023/02/18 10:36:02;;;;;;;5.82;2.53;;;;;;;9.76;100.00;100928.63;6241870;28;20449;-81
2023/02/18 10:39:31;;;;;;;3.93;2.43;;;;;;;9.75;100.00;100937.44;6233954;28;20057;-80
2023/02/18 10:42:41;;;;;;;3.17;2.00;;;;;;;9.70;100.00;100937.66;6225831;28;20140;-82
2023/02/18 10:45:52;;;;;;;3.90;1.85;;;;;;;9.69;100.00;100948.22;6232318;28;20610;-81
2023/02/18 10:49:09;;;;;;;6.40;2.53;;;;;;;9.73;100.00;100940.13;6241781;28;20430;-82
2023/02/18 10:52:16;;;;;;;2.85;1.60;;;;;;;9.74;100.00;100940.97;6242129;28;20489;-82
2023/02/18 10:55:18;;;;;;;3.50;1.80;;;;;;;9.74;100.00;100935.72;6259841;28;20041;-79
2023/02/18 10:58:31;;;;;;;2.33;1.25;;;;;;;9.77;100.00;100936.44;6254606;28;20053;-76
2023/02/18 11:01:33;;;;;;;1.90;1.58;;;;;;;9.80;100.00;100945.94;6244142;28;20045;-79
2023/02/18 11:04:38;;;;;;;4.32;1.48;;;;;;;9.76;100.00;100924.22;6252508;28;20041;-77
2023/02/18 11:07:40;;;;;;;2.58;1.15;;;;;;;9.82;100.00;100942.34;6254273;28;20338;-79
2023/02/18 11:10:45;;;;;;;1.48;0.98;;;;;;;9.79;100.00;100931.97;6254821;28;20047;-78
2023/02/18 11:13:53;;;;;;;2.22;1.17;;;;;;;9.76;100.00;100934.72;6249314;28;20049;-79
2023/02/18 11:17:09;;;;;;;2.60;1.52;;;;;;;9.78;100.00;100925.03;6234921;28;20362;-78
2023/02/18 11:20:22;;;;;;;3.47;1.55;;;;;;;9.71;100.00;100933.25;6243745;28;20054;-77
2023/02/18 11:23:24;;;;;;;1.77;1.25;;;;;;;9.72;100.00;100940.19;6235753;28;20479;-77
2023/02/18 11:26:30;;;;;;;2.40;1.50;;;;;;;9.71;100.00;100931.47;6240748;28;20046;-78
2023/02/18 11:29:33;;;;;;;2.80;1.73;;;;;;;9.63;100.00;100939.72;6236574;28;20061;-80
2023/02/18 11:32:36;;;;;;;3.08;1.27;;;;;;;9.66;100.00;100929.06;6236510;28;20479;-80
2023/02/18 11:35:38;;;;;;;3.03;2.03;;;;;;;9.60;100.00;100926.72;6232171;28;20045;-79
2023/02/18 11:38:44;;;;;;;3.65;1.83;;;;;;;9.63;100.00;100917.88;6233044;28;20045;-83
2023/02/18 11:41:48;;;;;;;2.03;1.45;;;;;;;9.62;100.00;100913.53;6230959;28;20065;-78
2023/02/18 11:44:53;;;;;;;2.50;1.42;;;;;;;9.55;100.00;100920.00;6237894;28;20061;-77
2023/02/18 11:48:01;;;;;;;5.60;1.60;;;;;;;9.54;100.00;100913.91;6230668;28;20045;-79
2023/02/18 11:51:03;;;;;;;3.75;1.83;;;;;;;9.50;100.00;100920.22;6234625;28;20049;-78
2023/02/18 11:54:21;;;;;;;3.05;1.75;;;;;;;9.54;100.00;100937.53;6237899;28;20064;-79
2023/02/18 11:57:25;;;;;;;3.92;1.85;;;;;;;9.58;100.00;100946.06;6234988;28;20045;-78
2023/02/18 12:00:37;;;;;;;2.92;1.45;;;;;;;9.53;100.00;100922.66;6237022;28;20057;-79
2023/02/18 12:03:46;;;;;;;2.42;1.40;;;;;;;9.49;100.00;100936.84;6236772;28;20057;-79
2023/02/18 12:06:50;;;;;;;;;;;;;;;9.47;100.00;100930.84;6252661;28;20042;-79
2023/02/18 12:09:55;;;;;;;1.60;1.08;;;;;;;9.43;100.00;100938.91;6245153;28;19921;-79
2023/02/18 12:13:03;;;;;;;2.85;1.08;;;;;;;9.46;100.00;100938.78;6253774;28;20389;-80
2023/02/18 12:16:21;;;;;;;1.70;1.02;;;;;;;9.46;100.00;100937.00;6241970;28;20057;-77
2023/02/18 12:19:45;;;;;;;1.02;0.85;;;;;;;9.41;100.00;100939.00;6228822;28;20470;-80
2023/02/18 12:22:53;;;;;;;1.42;1.17;;;;;;;9.41;100.00;100936.38;6252283;28;20049;-80
2023/02/18 12:26:05;;;;;;;3.60;0.90;;;;;;;9.39;100.00;100946.91;6238516;28;20054;-79
2023/02/18 12:29:29;;;;;;;1.42;1.02;;;;;;;9.39;100.00;100948.69;6243142;28;20045;-77
2023/02/18 12:32:41;;;;;;;2.08;1.00;;;;;;;9.36;100.00;100962.81;6241561;28;20056;-80
2023/02/18 12:36:10;;;;;;;3.20;1.60;;;;;;;9.37;100.00;100964.50;6252809;28;20049;-78
2023/02/18 12:39:24;;;;;;;1.80;1.35;;;;;;;9.40;100.00;100953.00;6260906;28;20056;-80
2023/02/18 12:42:38;;;;;;;4.38;1.30;;;;;;;9.37;100.00;100946.16;6245928;28;20084;-80
2023/02/18 12:45:56;;;;;;;3.25;1.98;;;;;;;9.34;100.00;100950.66;6239918;28;20057;-79
2023/02/18 12:49:07;;;;;;;2.63;1.52;;;;;;;9.37;100.00;100967.13;6232372;28;20057;-80
2023/02/18 12:52:20;;;;;;;4.10;1.60;;;;;;;9.38;100.00;100960.09;6233705;28;20057;-79
2023/02/18 12:55:40;;;;;;;3.20;1.58;;;;;;;9.38;100.00;100949.63;6242432;28;20049;-80
2023/02/18 12:58:52;;;;;;;7.28;1.73;;;;;;;9.34;100.00;100946.28;6244014;28;20041;-82
2023/02/18 13:02:07;;;;;;;2.63;1.70;;;;;;;9.33;100.00;100946.34;6235940;28;20065;-79
2023/02/18 13:05:18;;;;;;;4.63;1.90;;;;;;;9.32;100.00;100942.03;6252162;28;20053;-80
2023/02/18 13:08:34;;;;;;;3.85;2.20;;;;;;;9.38;100.00;100967.97;6241530;28;20358;-77
2023/02/18 13:11:46;;;;;;;12.52;2.10;;;;;;;9.38;100.00;100975.84;6235665;28;20056;-79
2023/02/18 13:14:56;;;;;;;2.83;1.50;;;;;;;9.33;100.00;100962.09;6251083;28;20053;-77
2023/02/18 13:18:00;;;;;;;4.70;2.22;;;;;;;9.32;100.00;100973.50;6251378;28;20049;-79
2023/02/18 13:21:05;;;;;;;6.65;1.92;;;;;;;9.38;100.00;100988.97;6237592;28;20060;-78
2023/02/18 13:24:12;;;;;;;2.55;1.83;;;;;;;9.43;100.00;100973.88;6233308;28;20135;-79
2023/02/18 13:27:21;;;;;;;3.40;2.35;;;;;;;9.46;100.00;100983.38;6226916;28;20057;-79
2023/02/18 13:30:28;;;;;;;4.10;2.47;;;;;;;9.49;100.00;100981.44;6227336;28;20050;-78
2023/02/18 13:33:38;;;;;;;3.13;1.92;;;;;;;9.51;100.00;100998.00;6226934;28;20053;-80
2023/02/18 13:37:01;;;;;;;7.28;2.05;;;;;;;9.54;100.00;100983.91;6226957;28;20045;-80
2023/02/18 13:40:13;;;;;;;4.00;2.25;;;;;;;9.51;100.00;100994.50;6244632;28;20045;-80
2023/02/18 13:43:20;;;;;;;10.27;3.53;;;;;;;9.56;100.00;100995.16;6249741;28;20053;-78
2023/02/18 13:46:23;;;;;;;4.30;2.17;;;;;;;9.52;100.00;100983.94;6251100;28;20045;-79
2023/02/18 13:49:26;;;;;;;4.22;2.20;;;;;;;9.58;100.00;100988.94;6251389;28;20076;-79
2023/02/18 13:52:28;;;;;;;6.65;2.15;;;;;;;9.57;100.00;100991.59;6251076;28;20049;-78
2023/02/18 13:55:39;;;;;;;4.70;2.22;;;;;;;9.59;100.00;100987.16;6250569;28;20049;-79
2023/02/18 13:58:43;;;;;;;5.38;2.40;;;;;;;9.57;100.00;100987.22;6250677;28;20037;-77
2023/02/18 14:01:47;;;;;;;8.82;3.28;;;;;;;9.52;100.00;100999.69;6252207;28;20401;-79
2023/02/18 14:04:52;;;;;;;6.32;2.25;;;;;;;9.52;100.00;101001.47;6258315;28;20051;-79
2023/02/18 14:08:10;;;;;;;5.05;1.92;;;;;;;9.49;100.00;101005.06;6258884;28;20045;-80
2023/02/18 14:11:34;;;;;;;8.25;2.60;;;;;;;9.53;100.00;101011.88;6253346;28;20449;-79
2023/02/18 14:14:38;;;;;;;6.07;2.40;;;;;;;9.58;100.00;101006.41;6247953;28;20041;-78
2023/02/18 14:17:42;;;;;;;3.78;2.15;;;;;;;9.60;100.00;100999.34;6252703;28;20052;-79
2023/02/18 14:20:46;;;;;;;2.58;1.95;;;;;;;9.51;100.00;101011.09;6250691;28;20046;-79
2023/02/18 14:24:02;;;;;;;6.25;2.30;;;;;;;9.50;100.00;101008.56;6233178;28;20057;-79